KBLH/BLH METAR and TAF weather

Enter ICAO airport designator
Station Type Date Time Source
KBLH METAR 2020/09/26 23:52 UTC NOAA

KBLH 262352Z AUTO 14006KT 10SM CLR 38/08 A2974 RMK AO2 SLP064 T03830083 10389 20333 56021


Station Type Date Time Source
KBLH Decoded METAR 2020/09/26 23:52 UTC NOAA

BLYTHE AIRPORT, CA, United States (KBLH) 33-37N 114-43W 119M
Sep 26, 2020 - 07:52 PM EDT / 2020.09.26 2352 UTC
Wind: from the SE (140 degrees) at 7 MPH (6 KT):0
Visibility: 10 mile(s):0
Sky conditions: clear
Temperature: 100.9 F (38.3 C)
Heat index: 97.2 F (36.2 C):1
Dew Point: 46.9 F (8.3 C)
Relative Humidity: 16%
Pressure (altimeter): 29.74 in. Hg (1007 hPa)
Pressure tendency: 0.06 inches (2.1 hPa) lower than three hours ago
ob: KBLH 262352Z AUTO 14006KT 10SM CLR 38/08 A2974 RMK AO2 SLP064 T03830083 10389 20333 56021
cycle: 0

Station Type Date Time Source
KBLH TAF 2020/09/26 18:45 UTC NOAA

TAF KBLH 261743Z 2618/2718 18010G18KT P6SM SKC
FM270300 20006KT P6SM SKC
FM270700 VRB04KT P6SM FEW250

Example: see airport list